sensor_id;sensor_type;location;lat;lon;timestamp;temperature;humidity
648;DHT22;75315;49.006;9.060;2024-02-21T00:00:23;6.20;1.00
648;DHT22;75315;49.006;9.060;2024-02-21T00:02:50;6.30;1.00
648;DHT22;75315;49.006;9.060;2024-02-21T00:05:18;6.20;1.00
648;DHT22;75315;49.006;9.060;2024-02-21T00:07:45;6.20;1.00
648;DHT22;75315;49.006;9.060;2024-02-21T00:10:14;6.30;1.00
648;DHT22;75315;49.006;9.060;2024-02-21T00:12:41;6.30;1.00
648;DHT22;75315;49.006;9.060;2024-02-21T00:15:09;6.30;1.00
648;DHT22;75315;49.006;9.060;2024-02-21T00:17:36;6.30;1.00
648;DHT22;75315;49.006;9.060;2024-02-21T00:20:04;6.30;1.00
648;DHT22;75315;49.006;9.060;2024-02-21T00:22:32;6.40;1.00
648;DHT22;75315;49.006;9.060;2024-02-21T00:25:00;6.30;1.00
648;DHT22;75315;49.006;9.060;2024-02-21T00:27:28;6.20;1.00
648;DHT22;75315;49.006;9.060;2024-02-21T00:29:55;6.20;1.00
648;DHT22;75315;49.006;9.060;2024-02-21T00:32:23;6.20;1.00
648;DHT22;75315;49.006;9.060;2024-02-21T00:34:50;6.30;1.00
648;DHT22;75315;49.006;9.060;2024-02-21T00:37:17;6.20;1.00
648;DHT22;75315;49.006;9.060;2024-02-21T00:39:45;6.20;1.00
648;DHT22;75315;49.006;9.060;2024-02-21T00:42:12;6.20;1.00
648;DHT22;75315;49.006;9.060;2024-02-21T00:44:39;6.20;1.00
648;DHT22;75315;49.006;9.060;2024-02-21T00:47:07;6.20;1.00
648;DHT22;75315;49.006;9.060;2024-02-21T00:49:34;6.20;1.00
648;DHT22;75315;49.006;9.060;2024-02-21T00:52:01;6.20;1.00
648;DHT22;75315;49.006;9.060;2024-02-21T00:54:29;6.10;1.00
648;DHT22;75315;49.006;9.060;2024-02-21T00:57:13;6.20;29.50
648;DHT22;75315;49.006;9.060;2024-02-21T00:59:40;6.30;1.00
648;DHT22;75315;49.006;9.060;2024-02-21T01:02:11;6.20;1.00
648;DHT22;75315;49.006;9.060;2024-02-21T01:04:39;6.20;1.00
648;DHT22;75315;49.006;9.060;2024-02-21T01:07:06;6.10;1.00
648;DHT22;75315;49.006;9.060;2024-02-21T01:09:34;6.10;1.00
648;DHT22;75315;49.006;9.060;2024-02-21T01:12:01;6.10;55.80
648;DHT22;75315;49.006;9.060;2024-02-21T01:14:28;6.20;99.90
648;DHT22;75315;49.006;9.060;2024-02-21T01:16:56;6.10;99.90
648;DHT22;75315;49.006;9.060;2024-02-21T01:19:23;6.10;99.90
648;DHT22;75315;49.006;9.060;2024-02-21T01:21:51;6.10;99.90
648;DHT22;75315;49.006;9.060;2024-02-21T01:24:18;6.10;99.90
648;DHT22;75315;49.006;9.060;2024-02-21T01:26:45;6.20;99.90
648;DHT22;75315;49.006;9.060;2024-02-21T01:29:13;6.00;99.90
648;DHT22;75315;49.006;9.060;2024-02-21T01:31:41;6.10;99.90
648;DHT22;75315;49.006;9.060;2024-02-21T01:34:08;6.00;99.90
648;DHT22;75315;49.006;9.060;2024-02-21T01:36:36;6.10;99.90
648;DHT22;75315;49.006;9.060;2024-02-21T01:39:03;6.20;99.90
648;DHT22;75315;49.006;9.060;2024-02-21T01:41:31;6.20;99.90
648;DHT22;75315;49.006;9.060;2024-02-21T01:43:58;6.20;99.90
648;DHT22;75315;49.006;9.060;2024-02-21T01:46:26;6.10;99.90
648;DHT22;75315;49.006;9.060;2024-02-21T01:48:58;6.20;99.90
648;DHT22;75315;49.006;9.060;2024-02-21T01:51:26;6.20;99.90
648;DHT22;75315;49.006;9.060;2024-02-21T01:53:55;6.10;1.00
648;DHT22;75315;49.006;9.060;2024-02-21T01:56:24;6.20;99.90
648;DHT22;75315;49.006;9.060;2024-02-21T01:58:52;6.10;1.00
648;DHT22;75315;49.006;9.060;2024-02-21T02:01:19;6.10;99.90
648;DHT22;75315;49.006;9.060;2024-02-21T02:03:48;6.30;99.90
648;DHT22;75315;49.006;9.060;2024-02-21T02:06:17;6.40;99.90
648;DHT22;75315;49.006;9.060;2024-02-21T02:08:44;6.30;99.90
648;DHT22;75315;49.006;9.060;2024-02-21T02:11:13;6.20;1.00
648;DHT22;75315;49.006;9.060;2024-02-21T02:13:41;6.20;99.90
648;DHT22;75315;49.006;9.060;2024-02-21T02:16:09;6.20;99.90
648;DHT22;75315;49.006;9.060;2024-02-21T02:18:36;6.20;1.00
648;DHT22;75315;49.006;9.060;2024-02-21T02:21:13;6.10;95.60
648;DHT22;75315;49.006;9.060;2024-02-21T02:23:47;6.00;1.00
648;DHT22;75315;49.006;9.060;2024-02-21T02:26:15;6.00;1.00
648;DHT22;75315;49.006;9.060;2024-02-21T02:28:42;6.10;99.90
648;DHT22;75315;49.006;9.060;2024-02-21T02:31:09;6.10;99.90
648;DHT22;75315;49.006;9.060;2024-02-21T02:33:37;6.20;99.90
648;DHT22;75315;49.006;9.060;2024-02-21T02:36:05;6.10;99.90
648;DHT22;75315;49.006;9.060;2024-02-21T02:38:32;6.10;99.90
648;DHT22;75315;49.006;9.060;2024-02-21T02:40:59;6.20;99.90
648;DHT22;75315;49.006;9.060;2024-02-21T02:43:27;6.20;99.90
648;DHT22;75315;49.006;9.060;2024-02-21T02:45:54;6.30;99.90
648;DHT22;75315;49.006;9.060;2024-02-21T02:48:22;6.20;99.90
648;DHT22;75315;49.006;9.060;2024-02-21T02:50:50;6.10;1.00
648;DHT22;75315;49.006;9.060;2024-02-21T02:53:17;6.20;99.90
648;DHT22;75315;49.006;9.060;2024-02-21T02:55:45;6.20;1.00
648;DHT22;75315;49.006;9.060;2024-02-21T02:58:12;6.20;99.90
648;DHT22;75315;49.006;9.060;2024-02-21T03:00:40;6.10;99.90
648;DHT22;75315;49.006;9.060;2024-02-21T03:03:07;6.10;40.20
648;DHT22;75315;49.006;9.060;2024-02-21T03:05:35;6.10;1.00
648;DHT22;75315;49.006;9.060;2024-02-21T03:08:03;6.10;1.00
648;DHT22;75315;49.006;9.060;2024-02-21T03:10:34;6.10;1.00
648;DHT22;75315;49.006;9.060;2024-02-21T03:13:01;6.20;1.00
648;DHT22;75315;49.006;9.060;2024-02-21T03:15:29;6.20;1.00
648;DHT22;75315;49.006;9.060;2024-02-21T03:17:56;6.10;1.00
648;DHT22;75315;49.006;9.060;2024-02-21T03:20:24;5.90;1.00
648;DHT22;75315;49.006;9.060;2024-02-21T03:22:51;6.00;99.90
648;DHT22;75315;49.006;9.060;2024-02-21T03:25:18;5.90;99.90
648;DHT22;75315;49.006;9.060;2024-02-21T03:27:47;5.90;99.90
648;DHT22;75315;49.006;9.060;2024-02-21T03:30:14;5.90;99.90
648;DHT22;75315;49.006;9.060;2024-02-21T03:32:42;6.00;99.90
648;DHT22;75315;49.006;9.060;2024-02-21T03:35:09;6.00;99.90
648;DHT22;75315;49.006;9.060;2024-02-21T03:37:37;6.00;1.00
648;DHT22;75315;49.006;9.060;2024-02-21T03:40:08;6.10;99.90
648;DHT22;75315;49.006;9.060;2024-02-21T03:42:37;5.80;99.90
648;DHT22;75315;49.006;9.060;2024-02-21T03:45:04;5.90;1.00
648;DHT22;75315;49.006;9.060;2024-02-21T03:47:32;5.90;86.40
648;DHT22;75315;49.006;9.060;2024-02-21T03:49:59;6.00;1.00
648;DHT22;75315;49.006;9.060;2024-02-21T03:52:27;5.80;99.90
648;DHT22;75315;49.006;9.060;2024-02-21T03:54:55;5.90;99.90
648;DHT22;75315;49.006;9.060;2024-02-21T03:57:22;5.80;1.00
648;DHT22;75315;49.006;9.060;2024-02-21T03:59:50;5.90;99.90
648;DHT22;75315;49.006;9.060;2024-02-21T04:02:19;5.90;99.90
648;DHT22;75315;49.006;9.060;2024-02-21T04:04:46;5.80;1.00
648;DHT22;75315;49.006;9.060;2024-02-21T04:07:15;5.80;99.90
648;DHT22;75315;49.006;9.060;2024-02-21T04:09:42;5.70;99.90
648;DHT22;75315;49.006;9.060;2024-02-21T04:12:10;5.70;99.90
648;DHT22;75315;49.006;9.060;2024-02-21T04:14:37;5.70;99.90
648;DHT22;75315;49.006;9.060;2024-02-21T04:17:09;5.60;99.90
648;DHT22;75315;49.006;9.060;2024-02-21T04:19:36;5.60;99.90
648;DHT22;75315;49.006;9.060;2024-02-21T04:22:04;5.50;99.90
648;DHT22;75315;49.006;9.060;2024-02-21T04:24:31;5.50;66.40
648;DHT22;75315;49.006;9.060;2024-02-21T04:26:58;5.50;99.90
648;DHT22;75315;49.006;9.060;2024-02-21T04:29:26;5.40;1.00
648;DHT22;75315;49.006;9.060;2024-02-21T04:31:55;5.30;1.00
648;DHT22;75315;49.006;9.060;2024-02-21T04:34:22;5.30;1.00
648;DHT22;75315;49.006;9.060;2024-02-21T04:36:50;5.30;99.90
648;DHT22;75315;49.006;9.060;2024-02-21T04:39:17;5.20;99.90
648;DHT22;75315;49.006;9.060;2024-02-21T04:41:44;5.30;1.00
648;DHT22;75315;49.006;9.060;2024-02-21T04:44:12;5.30;4.20
648;DHT22;75315;49.006;9.060;2024-02-21T04:46:42;5.20;1.00
648;DHT22;75315;49.006;9.060;2024-02-21T04:49:10;5.40;99.90
648;DHT22;75315;49.006;9.060;2024-02-21T04:51:37;5.20;99.90
648;DHT22;75315;49.006;9.060;2024-02-21T04:54:06;5.30;99.90
648;DHT22;75315;49.006;9.060;2024-02-21T04:56:34;5.10;1.00
648;DHT22;75315;49.006;9.060;2024-02-21T04:59:01;5.10;99.90
648;DHT22;75315;49.006;9.060;2024-02-21T05:01:29;5.00;1.00
648;DHT22;75315;49.006;9.060;2024-02-21T05:03:56;5.00;99.90
648;DHT22;75315;49.006;9.060;2024-02-21T05:06:24;5.00;1.00
648;DHT22;75315;49.006;9.060;2024-02-21T05:08:51;5.00;1.00
648;DHT22;75315;49.006;9.060;2024-02-21T05:11:18;4.90;99.90
648;DHT22;75315;49.006;9.060;2024-02-21T05:13:46;4.90;1.00
648;DHT22;75315;49.006;9.060;2024-02-21T05:16:14;4.90;1.00
648;DHT22;75315;49.006;9.060;2024-02-21T05:18:41;4.90;1.00
648;DHT22;75315;49.006;9.060;2024-02-21T05:21:10;4.90;99.90
648;DHT22;75315;49.006;9.060;2024-02-21T05:23:37;4.90;1.00
648;DHT22;75315;49.006;9.060;2024-02-21T05:26:06;4.90;1.00
648;DHT22;75315;49.006;9.060;2024-02-21T05:28:34;4.70;1.00
648;DHT22;75315;49.006;9.060;2024-02-21T05:31:01;4.80;1.00
648;DHT22;75315;49.006;9.060;2024-02-21T05:33:29;4.80;1.00
648;DHT22;75315;49.006;9.060;2024-02-21T05:35:56;4.80;99.90
648;DHT22;75315;49.006;9.060;2024-02-21T05:38:24;4.70;1.00
648;DHT22;75315;49.006;9.060;2024-02-21T05:40:51;4.70;1.00
648;DHT22;75315;49.006;9.060;2024-02-21T05:43:18;4.70;1.00
648;DHT22;75315;49.006;9.060;2024-02-21T05:45:46;4.70;1.00
648;DHT22;75315;49.006;9.060;2024-02-21T05:48:13;4.70;1.00
648;DHT22;75315;49.006;9.060;2024-02-21T05:50:41;4.60;99.90
648;DHT22;75315;49.006;9.060;2024-02-21T05:53:08;4.50;1.00
648;DHT22;75315;49.006;9.060;2024-02-21T05:55:37;4.50;45.90
648;DHT22;75315;49.006;9.060;2024-02-21T05:58:04;4.40;99.90
648;DHT22;75315;49.006;9.060;2024-02-21T06:00:33;4.40;99.90
648;DHT22;75315;49.006;9.060;2024-02-21T06:03:00;4.00;99.90
648;DHT22;75315;49.006;9.060;2024-02-21T06:05:29;4.20;99.90
648;DHT22;75315;49.006;9.060;2024-02-21T06:07:56;4.10;99.90
648;DHT22;75315;49.006;9.060;2024-02-21T06:10:23;4.20;99.90
648;DHT22;75315;49.006;9.060;2024-02-21T06:12:51;4.30;99.90
648;DHT22;75315;49.006;9.060;2024-02-21T06:15:18;4.20;1.00
648;DHT22;75315;49.006;9.060;2024-02-21T06:17:46;4.10;1.00
648;DHT22;75315;49.006;9.060;2024-02-21T06:20:15;4.00;1.00
648;DHT22;75315;49.006;9.060;2024-02-21T06:22:43;3.90;99.90
648;DHT22;75315;49.006;9.060;2024-02-21T06:25:10;4.00;1.00
648;DHT22;75315;49.006;9.060;2024-02-21T06:27:37;4.00;1.00
648;DHT22;75315;49.006;9.060;2024-02-21T06:30:05;3.90;1.00
648;DHT22;75315;49.006;9.060;2024-02-21T06:32:33;3.90;99.90
648;DHT22;75315;49.006;9.060;2024-02-21T06:35:00;3.90;77.40
648;DHT22;75315;49.006;9.060;2024-02-21T06:37:29;3.90;99.90
648;DHT22;75315;49.006;9.060;2024-02-21T06:39:57;4.00;99.90
648;DHT22;75315;49.006;9.060;2024-02-21T06:42:25;4.00;99.90
648;DHT22;75315;49.006;9.060;2024-02-21T06:44:53;3.90;99.90
648;DHT22;75315;49.006;9.060;2024-02-21T06:47:20;3.90;78.60
648;DHT22;75315;49.006;9.060;2024-02-21T06:49:51;3.90;99.90
648;DHT22;75315;49.006;9.060;2024-02-21T06:52:18;4.00;99.90
648;DHT22;75315;49.006;9.060;2024-02-21T06:54:50;4.00;99.90
648;DHT22;75315;49.006;9.060;2024-02-21T06:57:17;4.10;99.90
648;DHT22;75315;49.006;9.060;2024-02-21T06:59:44;4.20;99.90
648;DHT22;75315;49.006;9.060;2024-02-21T07:02:12;4.40;1.00
648;DHT22;75315;49.006;9.060;2024-02-21T07:04:39;4.50;1.00
648;DHT22;75315;49.006;9.060;2024-02-21T07:07:07;4.50;1.00
648;DHT22;75315;49.006;9.060;2024-02-21T07:09:34;4.60;95.50
648;DHT22;75315;49.006;9.060;2024-02-21T07:12:02;5.00;1.00
648;DHT22;75315;49.006;9.060;2024-02-21T07:14:35;5.00;99.90
648;DHT22;75315;49.006;9.060;2024-02-21T07:17:02;5.20;1.00
648;DHT22;75315;49.006;9.060;2024-02-21T07:19:30;5.30;1.00
648;DHT22;75315;49.006;9.060;2024-02-21T07:21:58;5.60;1.00
648;DHT22;75315;49.006;9.060;2024-02-21T07:24:25;5.70;98.50
648;DHT22;75315;49.006;9.060;2024-02-21T07:26:53;6.00;1.00
648;DHT22;75315;49.006;9.060;2024-02-21T07:29:20;6.00;99.90
648;DHT22;75315;49.006;9.060;2024-02-21T07:31:48;6.50;99.90
648;DHT22;75315;49.006;9.060;2024-02-21T07:34:16;6.50;1.00
648;DHT22;75315;49.006;9.060;2024-02-21T07:36:44;7.20;1.00
648;DHT22;75315;49.006;9.060;2024-02-21T07:39:11;7.00;99.90
648;DHT22;75315;49.006;9.060;2024-02-21T07:41:39;7.50;99.90
648;DHT22;75315;49.006;9.060;2024-02-21T07:44:08;7.70;99.90
648;DHT22;75315;49.006;9.060;2024-02-21T07:46:36;7.50;99.90
648;DHT22;75315;49.006;9.060;2024-02-21T07:49:03;7.80;99.90
648;DHT22;75315;49.006;9.060;2024-02-21T07:51:30;7.70;99.90
648;DHT22;75315;49.006;9.060;2024-02-21T07:53:58;7.60;99.90
648;DHT22;75315;49.006;9.060;2024-02-21T07:56:27;7.60;99.90
648;DHT22;75315;49.006;9.060;2024-02-21T07:58:54;7.60;99.90
648;DHT22;75315;49.006;9.060;2024-02-21T08:01:22;7.60;99.90
648;DHT22;75315;49.006;9.060;2024-02-21T08:03:49;7.80;99.90
648;DHT22;75315;49.006;9.060;2024-02-21T08:06:17;7.40;99.90
648;DHT22;75315;49.006;9.060;2024-02-21T08:08:45;7.60;99.90
648;DHT22;75315;49.006;9.060;2024-02-21T08:11:12;7.60;99.90
648;DHT22;75315;49.006;9.060;2024-02-21T08:13:40;7.80;99.90
648;DHT22;75315;49.006;9.060;2024-02-21T08:16:07;7.90;85.30
648;DHT22;75315;49.006;9.060;2024-02-21T08:18:34;7.60;24.90
648;DHT22;75315;49.006;9.060;2024-02-21T08:21:05;7.60;57.10
648;DHT22;75315;49.006;9.060;2024-02-21T08:23:32;7.40;52.90
648;DHT22;75315;49.006;9.060;2024-02-21T08:26:02;7.70;57.80
648;DHT22;75315;49.006;9.060;2024-02-21T08:28:30;7.50;57.50
648;DHT22;75315;49.006;9.060;2024-02-21T08:30:58;7.60;47.50
648;DHT22;75315;49.006;9.060;2024-02-21T08:33:26;7.80;56.90
648;DHT22;75315;49.006;9.060;2024-02-21T08:35:53;7.80;43.30
648;DHT22;75315;49.006;9.060;2024-02-21T08:38:21;7.70;29.10
648;DHT22;75315;49.006;9.060;2024-02-21T08:40:48;7.80;40.70
648;DHT22;75315;49.006;9.060;2024-02-21T08:43:16;7.90;57.80
648;DHT22;75315;49.006;9.060;2024-02-21T08:45:43;7.90;58.40
648;DHT22;75315;49.006;9.060;2024-02-21T08:48:11;8.20;43.70
648;DHT22;75315;49.006;9.060;2024-02-21T08:50:39;8.00;57.90
648;DHT22;75315;49.006;9.060;2024-02-21T08:53:07;8.00;40.90
648;DHT22;75315;49.006;9.060;2024-02-21T08:55:34;8.20;21.50
648;DHT22;75315;49.006;9.060;2024-02-21T08:58:03;8.00;11.60
648;DHT22;75315;49.006;9.060;2024-02-21T09:00:31;7.80;1.00
648;DHT22;75315;49.006;9.060;2024-02-21T09:03:00;7.80;1.00
648;DHT22;75315;49.006;9.060;2024-02-21T09:05:27;7.80;1.00
648;DHT22;75315;49.006;9.060;2024-02-21T09:07:55;7.90;1.00
648;DHT22;75315;49.006;9.060;2024-02-21T09:10:22;7.80;1.00
648;DHT22;75315;49.006;9.060;2024-02-21T09:12:50;8.10;1.00
648;DHT22;75315;49.006;9.060;2024-02-21T09:15:17;8.00;1.00
648;DHT22;75315;49.006;9.060;2024-02-21T09:17:44;7.90;1.00
648;DHT22;75315;49.006;9.060;2024-02-21T09:20:15;7.90;1.00
648;DHT22;75315;49.006;9.060;2024-02-21T09:22:44;8.00;1.00
648;DHT22;75315;49.006;9.060;2024-02-21T09:25:11;8.00;1.00
648;DHT22;75315;49.006;9.060;2024-02-21T09:27:39;8.20;1.00
648;DHT22;75315;49.006;9.060;2024-02-21T09:30:07;8.30;1.00
648;DHT22;75315;49.006;9.060;2024-02-21T09:32:34;8.30;1.00
648;DHT22;75315;49.006;9.060;2024-02-21T09:35:02;8.30;1.00
648;DHT22;75315;49.006;9.060;2024-02-21T09:37:30;8.60;1.00
648;DHT22;75315;49.006;9.060;2024-02-21T09:39:59;8.60;1.00
648;DHT22;75315;49.006;9.060;2024-02-21T09:42:47;8.50;1.00
648;DHT22;75315;49.006;9.060;2024-02-21T09:45:23;9.10;1.00
648;DHT22;75315;49.006;9.060;2024-02-21T09:50:34;9.10;1.00
648;DHT22;75315;49.006;9.060;2024-02-21T09:53:04;9.10;1.00
648;DHT22;75315;49.006;9.060;2024-02-21T09:55:34;9.20;1.00
648;DHT22;75315;49.006;9.060;2024-02-21T09:58:02;9.20;1.00
648;DHT22;75315;49.006;9.060;2024-02-21T10:00:31;9.40;1.00
648;DHT22;75315;49.006;9.060;2024-02-21T10:02:59;9.60;1.00
648;DHT22;75315;49.006;9.060;2024-02-21T10:05:27;9.50;1.00
648;DHT22;75315;49.006;9.060;2024-02-21T10:07:55;9.40;1.00
648;DHT22;75315;49.006;9.060;2024-02-21T10:10:23;9.50;1.00
648;DHT22;75315;49.006;9.060;2024-02-21T10:12:51;9.80;1.00
648;DHT22;75315;49.006;9.060;2024-02-21T10:15:22;9.80;1.00
648;DHT22;75315;49.006;9.060;2024-02-21T10:18:01;9.90;1.00
648;DHT22;75315;49.006;9.060;2024-02-21T10:20:31;10.00;1.00
648;DHT22;75315;49.006;9.060;2024-02-21T10:23:05;10.20;1.00
648;DHT22;75315;49.006;9.060;2024-02-21T10:25:37;9.10;1.00
648;DHT22;75315;49.006;9.060;2024-02-21T10:28:13;10.00;1.00
648;DHT22;75315;49.006;9.060;2024-02-21T10:30:52;10.30;1.00
648;DHT22;75315;49.006;9.060;2024-02-21T10:33:21;10.30;1.00
648;DHT22;75315;49.006;9.060;2024-02-21T10:35:49;10.40;1.00
648;DHT22;75315;49.006;9.060;2024-02-21T10:38:17;10.40;1.00
648;DHT22;75315;49.006;9.060;2024-02-21T10:40:46;10.40;1.00
648;DHT22;75315;49.006;9.060;2024-02-21T10:43:14;10.30;1.00
648;DHT22;75315;49.006;9.060;2024-02-21T10:45:43;10.40;1.00
648;DHT22;75315;49.006;9.060;2024-02-21T10:48:22;10.60;1.00
648;DHT22;75315;49.006;9.060;2024-02-21T10:50:56;10.70;1.00
648;DHT22;75315;49.006;9.060;2024-02-21T10:53:33;10.70;1.00
648;DHT22;75315;49.006;9.060;2024-02-21T10:56:30;10.80;1.00
648;DHT22;75315;49.006;9.060;2024-02-21T10:58:58;10.70;1.00
648;DHT22;75315;49.006;9.060;2024-02-21T11:01:28;10.60;1.00
648;DHT22;75315;49.006;9.060;2024-02-21T11:04:01;10.80;1.00
648;DHT22;75315;49.006;9.060;2024-02-21T11:06:30;10.60;1.00
648;DHT22;75315;49.006;9.060;2024-02-21T11:09:03;10.90;1.00
648;DHT22;75315;49.006;9.060;2024-02-21T11:11:35;11.00;1.00
648;DHT22;75315;49.006;9.060;2024-02-21T11:16:40;11.20;1.00
648;DHT22;75315;49.006;9.060;2024-02-21T11:19:26;11.40;1.00
648;DHT22;75315;49.006;9.060;2024-02-21T11:21:55;11.50;1.00
648;DHT22;75315;49.006;9.060;2024-02-21T11:24:33;11.40;1.00
648;DHT22;75315;49.006;9.060;2024-02-21T11:27:12;11.50;1.00
648;DHT22;75315;49.006;9.060;2024-02-21T11:29:44;11.20;1.00
648;DHT22;75315;49.006;9.060;2024-02-21T11:32:14;11.00;1.00
648;DHT22;75315;49.006;9.060;2024-02-21T11:37:21;11.40;1.00
648;DHT22;75315;49.006;9.060;2024-02-21T11:39:51;11.00;1.00
648;DHT22;75315;49.006;9.060;2024-02-21T11:42:20;11.20;1.00
648;DHT22;75315;49.006;9.060;2024-02-21T11:44:47;11.10;1.00
648;DHT22;75315;49.006;9.060;2024-02-21T11:47:16;11.30;1.00
648;DHT22;75315;49.006;9.060;2024-02-21T11:49:45;11.20;1.00
648;DHT22;75315;49.006;9.060;2024-02-21T11:52:13;11.00;1.00
648;DHT22;75315;49.006;9.060;2024-02-21T11:54:43;11.20;1.00
648;DHT22;75315;49.006;9.060;2024-02-21T11:57:10;11.10;1.00
648;DHT22;75315;49.006;9.060;2024-02-21T11:59:41;11.20;1.00
648;DHT22;75315;49.006;9.060;2024-02-21T12:02:09;11.50;1.00
648;DHT22;75315;49.006;9.060;2024-02-21T12:04:38;11.20;1.00
648;DHT22;75315;49.006;9.060;2024-02-21T12:07:05;11.20;1.00
648;DHT22;75315;49.006;9.060;2024-02-21T12:09:34;11.60;1.00
648;DHT22;75315;49.006;9.060;2024-02-21T12:12:03;11.50;1.00
648;DHT22;75315;49.006;9.060;2024-02-21T12:14:33;11.80;1.00
648;DHT22;75315;49.006;9.060;2024-02-21T12:17:02;11.80;1.00
648;DHT22;75315;49.006;9.060;2024-02-21T12:19:33;11.50;1.00
648;DHT22;75315;49.006;9.060;2024-02-21T12:22:02;11.50;1.00
648;DHT22;75315;49.006;9.060;2024-02-21T12:24:33;11.60;1.00
648;DHT22;75315;49.006;9.060;2024-02-21T12:27:01;11.70;1.00
648;DHT22;75315;49.006;9.060;2024-02-21T12:29:31;11.70;1.00
648;DHT22;75315;49.006;9.060;2024-02-21T12:31:58;12.00;1.00
648;DHT22;75315;49.006;9.060;2024-02-21T12:34:26;12.10;1.00
648;DHT22;75315;49.006;9.060;2024-02-21T12:37:11;12.00;1.00
648;DHT22;75315;49.006;9.060;2024-02-21T12:39:41;12.00;1.00
648;DHT22;75315;49.006;9.060;2024-02-21T12:42:09;11.90;1.00
648;DHT22;75315;49.006;9.060;2024-02-21T12:44:38;12.00;1.00
648;DHT22;75315;49.006;9.060;2024-02-21T12:47:06;11.90;1.00
648;DHT22;75315;49.006;9.060;2024-02-21T12:49:33;11.80;1.00
648;DHT22;75315;49.006;9.060;2024-02-21T12:52:01;11.60;1.00
648;DHT22;75315;49.006;9.060;2024-02-21T12:54:30;11.80;1.00
648;DHT22;75315;49.006;9.060;2024-02-21T12:56:58;11.70;1.00
648;DHT22;75315;49.006;9.060;2024-02-21T12:59:30;11.70;1.00
648;DHT22;75315;49.006;9.060;2024-02-21T13:01:57;11.70;1.00
648;DHT22;75315;49.006;9.060;2024-02-21T13:04:25;11.80;1.00
648;DHT22;75315;49.006;9.060;2024-02-21T13:06:52;11.90;1.00
648;DHT22;75315;49.006;9.060;2024-02-21T13:09:20;11.90;1.00
648;DHT22;75315;49.006;9.060;2024-02-21T13:11:49;12.00;1.00
648;DHT22;75315;49.006;9.060;2024-02-21T13:14:18;12.00;1.00
648;DHT22;75315;49.006;9.060;2024-02-21T13:16:46;12.20;1.00
648;DHT22;75315;49.006;9.060;2024-02-21T13:19:13;12.10;1.00
648;DHT22;75315;49.006;9.060;2024-02-21T13:21:45;12.20;1.00
648;DHT22;75315;49.006;9.060;2024-02-21T13:24:12;12.20;1.00
648;DHT22;75315;49.006;9.060;2024-02-21T13:26:40;12.10;1.00
648;DHT22;75315;49.006;9.060;2024-02-21T13:29:08;11.80;1.00
648;DHT22;75315;49.006;9.060;2024-02-21T13:31:35;12.00;1.00
648;DHT22;75315;49.006;9.060;2024-02-21T13:34:03;12.00;1.00
648;DHT22;75315;49.006;9.060;2024-02-21T13:36:30;12.00;1.00
648;DHT22;75315;49.006;9.060;2024-02-21T13:38:58;12.10;1.00
648;DHT22;75315;49.006;9.060;2024-02-21T13:41:25;12.00;1.00
648;DHT22;75315;49.006;9.060;2024-02-21T13:43:53;11.90;1.00
648;DHT22;75315;49.006;9.060;2024-02-21T13:46:21;11.90;1.00
648;DHT22;75315;49.006;9.060;2024-02-21T13:48:49;11.90;1.00
648;DHT22;75315;49.006;9.060;2024-02-21T13:51:17;11.90;1.00
648;DHT22;75315;49.006;9.060;2024-02-21T13:53:44;11.90;1.00
648;DHT22;75315;49.006;9.060;2024-02-21T13:56:11;11.70;1.00
648;DHT22;75315;49.006;9.060;2024-02-21T13:58:39;11.50;1.00
648;DHT22;75315;49.006;9.060;2024-02-21T14:01:07;11.50;1.00
648;DHT22;75315;49.006;9.060;2024-02-21T14:03:34;11.40;1.00
648;DHT22;75315;49.006;9.060;2024-02-21T14:06:02;11.50;1.00
648;DHT22;75315;49.006;9.060;2024-02-21T14:08:30;11.50;1.00
648;DHT22;75315;49.006;9.060;2024-02-21T14:10:58;11.60;1.00
648;DHT22;75315;49.006;9.060;2024-02-21T14:13:27;11.60;1.00
648;DHT22;75315;49.006;9.060;2024-02-21T14:15:55;11.60;1.00
648;DHT22;75315;49.006;9.060;2024-02-21T14:18:23;11.60;1.00
648;DHT22;75315;49.006;9.060;2024-02-21T14:20:51;11.60;1.00
648;DHT22;75315;49.006;9.060;2024-02-21T14:23:18;11.70;1.00
648;DHT22;75315;49.006;9.060;2024-02-21T14:25:46;11.70;1.00
648;DHT22;75315;49.006;9.060;2024-02-21T14:28:13;11.70;1.00
648;DHT22;75315;49.006;9.060;2024-02-21T14:30:42;11.60;1.00
648;DHT22;75315;49.006;9.060;2024-02-21T14:33:10;11.70;1.00
648;DHT22;75315;49.006;9.060;2024-02-21T14:35:38;11.60;1.00
648;DHT22;75315;49.006;9.060;2024-02-21T14:38:06;11.60;1.00
648;DHT22;75315;49.006;9.060;2024-02-21T14:40:34;11.70;1.00
648;DHT22;75315;49.006;9.060;2024-02-21T14:43:01;11.70;1.00
648;DHT22;75315;49.006;9.060;2024-02-21T14:45:29;11.60;1.00
648;DHT22;75315;49.006;9.060;2024-02-21T14:47:56;11.40;1.00
648;DHT22;75315;49.006;9.060;2024-02-21T14:50:23;11.60;1.00
648;DHT22;75315;49.006;9.060;2024-02-21T14:52:51;11.50;1.00
648;DHT22;75315;49.006;9.060;2024-02-21T14:55:19;11.60;1.00
648;DHT22;75315;49.006;9.060;2024-02-21T14:57:47;11.70;1.00
648;DHT22;75315;49.006;9.060;2024-02-21T15:00:14;11.60;1.00
648;DHT22;75315;49.006;9.060;2024-02-21T15:02:42;11.60;1.00
648;DHT22;75315;49.006;9.060;2024-02-21T15:05:10;11.60;1.00
648;DHT22;75315;49.006;9.060;2024-02-21T15:07:39;11.50;1.00
648;DHT22;75315;49.006;9.060;2024-02-21T15:10:07;11.60;1.00
648;DHT22;75315;49.006;9.060;2024-02-21T15:12:35;11.60;1.00
648;DHT22;75315;49.006;9.060;2024-02-21T15:15:02;11.50;1.00
648;DHT22;75315;49.006;9.060;2024-02-21T15:17:31;11.50;1.00
648;DHT22;75315;49.006;9.060;2024-02-21T15:19:58;11.50;1.00
648;DHT22;75315;49.006;9.060;2024-02-21T15:22:27;11.50;1.00
648;DHT22;75315;49.006;9.060;2024-02-21T15:24:55;11.50;1.00
648;DHT22;75315;49.006;9.060;2024-02-21T15:27:22;11.40;1.00
648;DHT22;75315;49.006;9.060;2024-02-21T15:29:51;11.40;1.00
648;DHT22;75315;49.006;9.060;2024-02-21T15:32:19;11.40;1.00
648;DHT22;75315;49.006;9.060;2024-02-21T15:34:47;11.50;1.00
648;DHT22;75315;49.006;9.060;2024-02-21T15:37:15;11.40;1.00
648;DHT22;75315;49.006;9.060;2024-02-21T15:39:42;11.30;1.00
648;DHT22;75315;49.006;9.060;2024-02-21T15:42:13;11.40;1.00
648;DHT22;75315;49.006;9.060;2024-02-21T15:44:40;11.10;1.00
648;DHT22;75315;49.006;9.060;2024-02-21T15:47:07;11.10;1.00
648;DHT22;75315;49.006;9.060;2024-02-21T15:49:35;11.10;1.00
648;DHT22;75315;49.006;9.060;2024-02-21T15:52:03;11.00;1.00
648;DHT22;75315;49.006;9.060;2024-02-21T15:54:30;11.00;1.00
648;DHT22;75315;49.006;9.060;2024-02-21T15:56:58;11.00;1.00
648;DHT22;75315;49.006;9.060;2024-02-21T15:59:25;11.00;1.00
648;DHT22;75315;49.006;9.060;2024-02-21T16:01:53;11.00;1.00
648;DHT22;75315;49.006;9.060;2024-02-21T16:04:20;10.90;1.00
648;DHT22;75315;49.006;9.060;2024-02-21T16:06:48;10.90;1.00
648;DHT22;75315;49.006;9.060;2024-02-21T16:09:18;10.90;1.00
648;DHT22;75315;49.006;9.060;2024-02-21T16:11:46;10.90;1.00
648;DHT22;75315;49.006;9.060;2024-02-21T16:14:14;10.80;1.00
648;DHT22;75315;49.006;9.060;2024-02-21T16:16:43;10.70;1.00
648;DHT22;75315;49.006;9.060;2024-02-21T16:19:12;10.80;1.00
648;DHT22;75315;49.006;9.060;2024-02-21T16:21:41;10.70;1.00
648;DHT22;75315;49.006;9.060;2024-02-21T16:24:08;10.50;1.00
648;DHT22;75315;49.006;9.060;2024-02-21T16:26:37;10.50;1.00
648;DHT22;75315;49.006;9.060;2024-02-21T16:29:04;10.50;1.00
648;DHT22;75315;49.006;9.060;2024-02-21T16:31:35;10.40;1.00
648;DHT22;75315;49.006;9.060;2024-02-21T16:34:04;10.40;1.00
648;DHT22;75315;49.006;9.060;2024-02-21T16:36:32;10.50;1.00